createdAt,value
2023-03-31T00:00:18.712Z,94865.53
2023-03-31T00:02:47.388Z,94858.03
2023-03-31T00:05:18.013Z,94861.31
2023-03-31T00:07:45.915Z,94850.34
2023-03-31T00:10:18.392Z,94854.16
2023-03-31T00:12:45.905Z,94845.72
2023-03-31T00:15:12.622Z,94843.91
2023-03-31T00:17:39.900Z,94840.28
2023-03-31T00:20:12.093Z,94830.16
2023-03-31T00:22:42.058Z,94831.34
2023-03-31T00:25:11.050Z,94825.19
2023-03-31T00:27:37.911Z,94821.56
2023-03-31T00:30:04.952Z,94816.59
2023-03-31T00:32:33.280Z,94813.97
2023-03-31T00:35:02.252Z,94817.41
2023-03-31T00:37:29.526Z,94810.00
2023-03-31T00:39:56.739Z,94803.38
2023-03-31T00:42:23.710Z,94806.81
2023-03-31T00:45:14.951Z,94793.13
2023-03-31T00:47:45.076Z,94787.06
2023-03-31T00:50:22.247Z,94779.16
2023-03-31T00:52:55.535Z,94778.88
2023-03-31T00:55:28.464Z,94776.81
2023-03-31T00:57:55.913Z,94772.00
2023-03-31T01:00:24.173Z,94771.00
2023-03-31T01:02:58.688Z,94770.00
2023-03-31T01:05:43.757Z,94763.34
2023-03-31T01:08:10.887Z,94757.13
2023-03-31T01:10:42.086Z,94742.06
2023-03-31T01:13:14.915Z,94742.59
2023-03-31T01:15:42.517Z,94743.63
2023-03-31T01:18:11.354Z,94737.06
2023-03-31T01:21:08.550Z,94732.69
2023-03-31T01:23:35.038Z,94725.38
2023-03-31T01:26:30.227Z,94727.91
2023-03-31T01:29:18.865Z,94719.56
2023-03-31T01:32:11.494Z,94711.03
2023-03-31T01:35:02.164Z,94699.34
2023-03-31T01:37:37.760Z,94701.97
2023-03-31T01:40:39.748Z,94708.78
2023-03-31T01:43:34.854Z,94705.16
2023-03-31T01:46:03.660Z,94698.53
2023-03-31T01:48:49.052Z,94701.16
2023-03-31T01:51:27.697Z,94693.09
2023-03-31T01:54:01.937Z,94687.91
2023-03-31T01:56:38.689Z,94681.81
2023-03-31T01:59:18.415Z,94683.75
2023-03-31T02:02:02.081Z,94671.28
2023-03-31T02:04:33.979Z,94667.22
2023-03-31T02:07:07.717Z,94663.06
2023-03-31T02:09:41.343Z,94656.63
2023-03-31T02:12:11.171Z,94656.00
2023-03-31T02:14:45.005Z,94650.63
2023-03-31T02:17:18.257Z,94657.88
2023-03-31T02:19:51.708Z,94646.91
2023-03-31T02:22:21.752Z,94650.97
2023-03-31T02:24:51.396Z,94646.84
2023-03-31T02:27:22.979Z,94645.91
2023-03-31T02:29:50.567Z,94648.44
2023-03-31T02:32:37.917Z,94650.91
2023-03-31T02:35:06.135Z,94651.88
2023-03-31T02:37:34.465Z,94649.94
2023-03-31T02:40:10.413Z,94648.56
2023-03-31T02:42:41.372Z,94653.25
2023-03-31T02:45:53.838Z,94655.78
2023-03-31T02:48:30.082Z,94645.09
2023-03-31T02:51:09.072Z,94647.06
2023-03-31T02:54:19.557Z,94639.16
2023-03-31T02:57:36.361Z,94638.09
2023-03-31T03:00:10.303Z,94623.94
2023-03-31T03:03:27.578Z,94620.41
2023-03-31T03:06:27.841Z,94619.41
2023-03-31T03:09:39.082Z,94624.81
2023-03-31T03:12:16.410Z,94622.25
2023-03-31T03:15:05.160Z,94620.59
2023-03-31T03:17:39.836Z,94635.16
2023-03-31T03:20:09.470Z,94631.28
2023-03-31T03:22:37.618Z,94639.88
2023-03-31T03:25:06.170Z,94656.13
2023-03-31T03:27:32.726Z,94650.09
2023-03-31T03:29:59.269Z,94657.25
2023-03-31T03:32:25.970Z,94652.00
2023-03-31T03:34:52.600Z,94660.75
2023-03-31T03:37:19.169Z,94669.56
2023-03-31T03:39:46.044Z,94680.63
2023-03-31T03:42:12.633Z,94680.28
2023-03-31T03:44:39.159Z,94666.22
2023-03-31T03:47:05.745Z,94665.84
2023-03-31T03:49:32.314Z,94659.78
2023-03-31T03:51:59.100Z,94651.59
2023-03-31T03:54:25.801Z,94647.47
2023-03-31T03:56:52.436Z,94633.66
2023-03-31T03:59:19.038Z,94624.47
2023-03-31T04:01:45.611Z,94608.25
2023-03-31T04:04:12.362Z,94605.88
2023-03-31T04:06:39.005Z,94600.25
2023-03-31T04:09:05.573Z,94601.63
2023-03-31T04:11:32.799Z,94591.28
2023-03-31T04:13:59.477Z,94588.84
2023-03-31T04:16:26.149Z,94586.13
2023-03-31T04:18:56.666Z,94576.16
2023-03-31T04:21:23.910Z,94576.91
2023-03-31T04:23:58.752Z,94563.44
2023-03-31T04:26:31.464Z,94552.88
2023-03-31T04:29:01.622Z,94550.41
2023-03-31T04:31:30.681Z,94538.94
2023-03-31T04:34:02.642Z,94538.69
2023-03-31T04:36:31.283Z,94520.63
2023-03-31T04:38:58.321Z,94518.97
2023-03-31T04:41:27.588Z,94506.22
2023-03-31T04:43:54.444Z,94513.09
2023-03-31T04:46:21.772Z,94517.00
2023-03-31T04:48:48.448Z,94524.63
2023-03-31T04:51:16.276Z,94523.44
2023-03-31T04:53:42.877Z,94510.34
2023-03-31T04:56:09.676Z,94483.19
2023-03-31T04:58:36.623Z,94460.16
2023-03-31T05:01:03.535Z,94452.06
2023-03-31T05:03:31.667Z,94434.97
2023-03-31T05:05:58.296Z,94426.69
2023-03-31T05:08:24.883Z,94424.06
2023-03-31T05:10:51.412Z,94413.09
2023-03-31T05:13:17.964Z,94410.28
2023-03-31T05:15:45.349Z,94407.84
2023-03-31T05:18:12.072Z,94396.13
2023-03-31T05:20:39.084Z,94374.53
2023-03-31T05:23:06.865Z,94355.09
2023-03-31T05:25:33.903Z,94353.50
2023-03-31T05:28:01.418Z,94360.41
2023-03-31T05:30:29.701Z,94355.34
2023-03-31T05:32:56.903Z,94360.34
2023-03-31T05:35:23.601Z,94343.81
2023-03-31T05:37:50.323Z,94347.06
2023-03-31T05:40:17.013Z,94329.69
2023-03-31T05:42:43.593Z,94331.56
2023-03-31T05:45:10.487Z,94306.25
2023-03-31T05:47:37.294Z,94297.78
2023-03-31T05:50:07.829Z,94289.13
2023-03-31T05:52:35.436Z,94278.25
2023-03-31T05:55:02.196Z,94283.72
2023-03-31T05:57:28.800Z,94276.44
2023-03-31T05:59:55.515Z,94262.31
2023-03-31T06:02:22.195Z,94269.66
2023-03-31T06:04:48.776Z,94254.34
2023-03-31T06:07:17.711Z,94267.91
2023-03-31T06:09:45.608Z,94247.88
2023-03-31T06:12:12.155Z,94239.00
2023-03-31T06:14:38.707Z,94227.06
2023-03-31T06:17:05.440Z,94213.91
2023-03-31T06:19:32.040Z,94202.38
2023-03-31T06:21:58.854Z,94205.28
2023-03-31T06:24:25.552Z,94196.75
2023-03-31T06:26:53.717Z,94191.91
2023-03-31T06:29:20.702Z,94180.16
2023-03-31T06:31:47.447Z,94179.38
2023-03-31T06:34:14.090Z,94181.59
2023-03-31T06:36:41.400Z,94177.34
2023-03-31T06:39:07.958Z,94176.56
2023-03-31T06:41:34.634Z,94174.94
2023-03-31T06:44:01.172Z,94157.13
2023-03-31T06:46:27.784Z,94148.00
2023-03-31T06:48:54.612Z,94146.56
2023-03-31T06:51:21.387Z,94151.06
2023-03-31T06:53:47.892Z,94167.63
2023-03-31T06:56:14.559Z,94165.25
2023-03-31T06:58:41.095Z,94178.19
2023-03-31T07:01:08.242Z,94194.38
2023-03-31T07:03:35.674Z,94171.50
2023-03-31T07:06:02.428Z,94218.72
2023-03-31T07:08:28.976Z,94267.25
2023-03-31T07:10:58.481Z,94278.69
2023-03-31T07:13:26.207Z,94281.81
2023-03-31T07:15:53.614Z,94266.59
2023-03-31T07:18:21.083Z,94285.31
2023-03-31T07:20:49.966Z,94292.41
2023-03-31T07:23:16.843Z,94331.16
2023-03-31T07:25:43.901Z,94311.84
2023-03-31T07:28:10.529Z,94324.97
2023-03-31T07:30:37.176Z,94326.63
2023-03-31T07:33:03.884Z,94310.84
2023-03-31T07:35:31.393Z,94310.72
2023-03-31T07:37:58.398Z,94276.66
2023-03-31T07:40:27.830Z,94255.28
2023-03-31T07:42:55.313Z,94250.22
2023-03-31T07:45:24.620Z,94236.47
2023-03-31T07:47:51.464Z,94240.47
2023-03-31T07:50:18.965Z,94240.88
2023-03-31T07:52:47.437Z,94247.16
2023-03-31T07:55:14.707Z,94227.53
2023-03-31T07:57:42.152Z,94213.97
2023-03-31T08:00:12.283Z,94203.88
2023-03-31T08:02:41.514Z,94180.03
2023-03-31T08:05:09.487Z,94164.59
2023-03-31T08:07:38.103Z,94165.25
2023-03-31T08:10:07.629Z,94172.50
2023-03-31T08:12:34.340Z,94173.13
2023-03-31T08:15:01.194Z,94148.19
2023-03-31T08:17:28.274Z,94180.84
2023-03-31T08:19:54.946Z,94171.31
2023-03-31T08:22:23.201Z,94170.06
2023-03-31T08:24:49.838Z,94174.53
2023-03-31T08:27:16.947Z,94154.47
2023-03-31T08:29:43.530Z,94139.09
2023-03-31T08:32:10.272Z,94158.53
2023-03-31T08:34:38.184Z,94167.63
2023-03-31T08:37:06.043Z,94183.97
2023-03-31T08:39:34.096Z,94182.72
2023-03-31T08:42:06.041Z,94186.84
2023-03-31T08:44:50.626Z,94180.53
2023-03-31T08:47:22.874Z,94209.94
2023-03-31T08:49:53.536Z,94213.28
2023-03-31T08:52:27.062Z,94225.84
2023-03-31T08:54:58.535Z,94220.88
2023-03-31T08:57:45.448Z,94269.03
2023-03-31T09:00:19.348Z,94239.53
2023-03-31T09:02:48.778Z,94253.25
2023-03-31T09:05:18.442Z,94246.69
2023-03-31T09:08:04.861Z,94248.22
2023-03-31T09:10:56.407Z,94250.59
2023-03-31T09:13:54.065Z,94223.31
2023-03-31T09:16:45.769Z,94188.72
2023-03-31T09:19:20.573Z,94212.22
2023-03-31T09:21:51.649Z,94208.59
2023-03-31T09:24:23.710Z,94202.47
2023-03-31T09:26:55.844Z,94186.75
2023-03-31T09:29:30.028Z,94171.50
2023-03-31T09:32:03.086Z,94173.56
2023-03-31T09:34:33.690Z,94166.97
2023-03-31T09:37:00.191Z,94153.44
2023-03-31T09:39:27.191Z,94163.50
2023-03-31T09:41:56.598Z,94143.56
2023-03-31T09:44:36.485Z,94141.84
2023-03-31T09:47:03.931Z,94133.13
2023-03-31T09:49:35.358Z,94132.53
2023-03-31T09:54:44.505Z,94137.09
2023-03-31T09:57:46.664Z,94136.81
2023-03-31T10:00:16.601Z,94148.94
2023-03-31T10:02:50.541Z,94151.06
2023-03-31T10:05:36.523Z,94148.94
2023-03-31T10:08:40.208Z,94149.06
2023-03-31T10:11:11.285Z,94131.44
2023-03-31T10:13:43.310Z,94128.59
2023-03-31T10:16:14.268Z,94113.63
2023-03-31T10:18:43.671Z,94109.53
2023-03-31T10:21:22.335Z,94100.59
2023-03-31T10:23:50.393Z,94090.09
2023-03-31T10:26:20.463Z,94094.19
2023-03-31T10:28:49.876Z,94102.91
2023-03-31T10:31:16.574Z,94078.66
2023-03-31T10:33:46.160Z,94072.81
2023-03-31T10:36:23.682Z,94060.28
2023-03-31T10:38:52.311Z,94064.66
2023-03-31T10:41:28.296Z,94066.97
2023-03-31T10:43:57.536Z,94072.72
2023-03-31T10:46:52.342Z,94065.97
2023-03-31T10:49:21.888Z,94053.63
2023-03-31T10:51:52.121Z,94047.34
2023-03-31T10:54:18.841Z,94033.06
2023-03-31T10:56:49.693Z,94028.69
2023-03-31T10:59:23.189Z,94018.88
2023-03-31T11:02:00.296Z,94042.09
2023-03-31T11:04:40.355Z,94034.84
2023-03-31T11:07:21.279Z,94022.88
2023-03-31T11:09:57.742Z,94030.75
2023-03-31T11:12:40.392Z,94008.09
2023-03-31T11:15:20.699Z,94031.16
2023-03-31T11:17:53.626Z,94068.00
2023-03-31T11:20:45.589Z,94105.16
2023-03-31T11:23:36.740Z,94161.59
2023-03-31T11:26:11.430Z,94161.66
2023-03-31T11:28:42.831Z,94141.91
2023-03-31T11:31:33.324Z,94140.91
2023-03-31T11:34:18.070Z,94103.16
2023-03-31T11:37:11.699Z,94111.50
2023-03-31T11:39:53.646Z,94098.53
2023-03-31T11:42:25.976Z,94093.56
2023-03-31T11:45:00.367Z,94068.22
2023-03-31T11:47:31.158Z,94056.75
2023-03-31T11:50:03.063Z,94043.69
2023-03-31T11:52:39.617Z,94031.31
2023-03-31T11:55:15.355Z,94027.47
2023-03-31T11:57:44.397Z,94020.97
2023-03-31T12:00:21.177Z,94006.69
2023-03-31T12:03:09.389Z,94000.06
2023-03-31T12:05:41.774Z,93985.31
2023-03-31T12:08:15.715Z,93977.28
2023-03-31T12:10:45.074Z,93977.34
2023-03-31T12:13:41.305Z,93959.91
2023-03-31T12:16:39.169Z,93959.56
2023-03-31T12:19:05.906Z,93956.81
2023-03-31T12:21:35.078Z,93962.19
2023-03-31T12:24:01.742Z,93948.94
2023-03-31T12:26:40.172Z,93957.97
2023-03-31T12:29:24.599Z,93962.16
2023-03-31T12:31:56.220Z,93959.91
2023-03-31T12:34:26.365Z,93960.00
2023-03-31T12:37:18.670Z,93969.34
2023-03-31T12:40:06.284Z,93960.53
2023-03-31T12:42:46.104Z,93959.00
2023-03-31T12:45:27.563Z,93971.44
2023-03-31T12:48:11.137Z,93985.38
2023-03-31T12:51:02.493Z,93978.56
2023-03-31T12:53:41.169Z,93981.00
2023-03-31T12:56:08.552Z,93962.88
2023-03-31T12:58:40.668Z,93971.63
2023-03-31T13:01:24.389Z,93989.13
2023-03-31T13:03:54.970Z,93987.00
2023-03-31T13:06:28.526Z,93974.47
2023-03-31T13:09:15.696Z,93992.84
2023-03-31T13:11:48.002Z,93977.69
2023-03-31T13:14:22.319Z,93999.69
2023-03-31T13:16:52.217Z,94034.75
2023-03-31T13:19:33.260Z,94023.25
2023-03-31T13:22:02.776Z,93882.47
2023-03-31T13:24:32.123Z,93902.72
2023-03-31T13:27:19.386Z,93910.44
2023-03-31T13:29:46.525Z,93937.03
2023-03-31T13:32:19.231Z,93928.31
2023-03-31T13:35:07.642Z,93935.50
2023-03-31T13:38:03.160Z,93914.03
2023-03-31T13:40:52.882Z,93900.59
2023-03-31T13:44:04.488Z,93909.75
2023-03-31T13:46:52.882Z,93924.78
2023-03-31T13:49:44.248Z,93926.63
2023-03-31T13:52:12.511Z,93926.34
2023-03-31T13:55:04.441Z,93928.28
2023-03-31T13:58:24.628Z,93932.81
2023-03-31T14:01:10.322Z,93919.28
2023-03-31T14:04:08.119Z,93929.84
2023-03-31T14:06:41.617Z,93930.41
2023-03-31T14:09:12.430Z,93939.72
2023-03-31T14:11:39.187Z,93945.03
2023-03-31T14:14:12.735Z,93954.25
2023-03-31T14:16:45.768Z,93955.28
2023-03-31T14:19:33.716Z,93949.47
2023-03-31T14:22:24.531Z,93949.59
2023-03-31T14:25:02.797Z,93953.38
2023-03-31T14:28:14.590Z,93950.91
2023-03-31T14:30:52.901Z,93975.66
2023-03-31T14:33:46.411Z,93975.63
2023-03-31T14:36:47.879Z,94007.78
2023-03-31T14:39:18.891Z,94061.53
2023-03-31T14:41:45.417Z,94034.53
2023-03-31T14:44:19.146Z,94032.63
2023-03-31T14:46:46.676Z,94001.88
2023-03-31T14:49:28.048Z,93997.75
2023-03-31T14:51:59.945Z,94009.25
2023-03-31T14:54:26.533Z,94019.38
2023-03-31T14:56:56.552Z,93989.25
2023-03-31T14:59:29.997Z,93973.88
2023-03-31T18:26:19.346Z,94061.44
2023-03-31T18:28:46.371Z,94062.28
2023-03-31T18:31:13.128Z,94056.19
2023-03-31T18:33:40.681Z,94048.53
2023-03-31T18:36:08.037Z,94058.31
2023-03-31T18:38:36.739Z,94064.50
2023-03-31T18:41:03.566Z,94067.22
2023-03-31T18:43:32.006Z,94061.34
2023-03-31T18:46:01.242Z,94053.34
2023-03-31T18:48:28.179Z,94053.44
2023-03-31T18:50:54.727Z,94062.78
2023-03-31T18:53:22.524Z,94064.44
2023-03-31T18:55:50.336Z,94061.59
2023-03-31T18:58:17.367Z,94076.91
2023-03-31T19:00:44.212Z,94082.25
2023-03-31T19:03:11.000Z,94080.06
2023-03-31T19:05:38.729Z,94081.88
2023-03-31T19:08:05.647Z,94071.38
2023-03-31T19:10:32.484Z,94083.06
2023-03-31T19:12:59.203Z,94091.38
2023-03-31T19:15:26.751Z,94089.28
2023-03-31T19:17:53.428Z,94091.88
2023-03-31T19:20:20.576Z,94084.13
2023-03-31T19:22:50.098Z,94091.19
2023-03-31T19:25:18.934Z,94090.41
2023-03-31T19:27:46.750Z,94089.19
2023-03-31T19:30:23.455Z,94082.25
2023-03-31T19:32:50.180Z,94077.59
2023-03-31T19:35:18.613Z,94080.81
2023-03-31T19:37:46.570Z,94080.56
2023-03-31T19:40:13.453Z,94064.00
2023-03-31T19:42:41.961Z,94067.84
2023-03-31T19:45:09.021Z,94063.19
2023-03-31T19:47:35.703Z,94062.34
2023-03-31T19:50:02.394Z,94062.91
2023-03-31T19:52:29.371Z,94057.41
2023-03-31T19:54:56.000Z,94062.31
2023-03-31T19:57:22.654Z,94053.06
2023-03-31T19:59:49.282Z,94048.91
2023-03-31T20:02:15.947Z,94037.03
2023-03-31T20:04:42.731Z,94038.16
2023-03-31T20:07:09.343Z,94043.81
2023-03-31T20:09:36.278Z,94045.03
2023-03-31T20:12:02.950Z,94047.41
2023-03-31T20:14:30.203Z,94039.00
2023-03-31T20:17:00.724Z,94026.25
2023-03-31T20:19:27.648Z,94025.13
2023-03-31T20:21:55.827Z,94033.31
2023-03-31T20:24:22.332Z,94013.88
2023-03-31T20:26:49.944Z,94023.56
2023-03-31T20:29:16.654Z,94028.00
2023-03-31T20:31:43.264Z,94027.69
2023-03-31T20:34:15.059Z,94015.59
2023-03-31T20:36:43.761Z,94018.28
2023-03-31T20:39:12.832Z,94011.19
2023-03-31T20:41:40.101Z,94003.75
2023-03-31T20:44:12.642Z,94001.94
2023-03-31T20:46:42.005Z,94019.22
2023-03-31T20:49:09.077Z,94022.34
2023-03-31T20:51:37.621Z,94019.38
2023-03-31T20:54:05.375Z,94020.97
2023-03-31T20:56:36.846Z,94032.22
2023-03-31T20:59:04.464Z,94021.34
2023-03-31T21:01:33.450Z,94037.88
2023-03-31T21:04:02.222Z,94025.44
2023-03-31T21:06:32.622Z,94026.69
2023-03-31T21:08:59.330Z,94031.09
2023-03-31T21:11:26.545Z,94029.50
2023-03-31T21:13:53.204Z,94045.22
2023-03-31T21:16:20.536Z,94031.81
2023-03-31T21:18:47.808Z,94038.47
2023-03-31T21:21:18.732Z,94037.06
2023-03-31T21:23:46.612Z,94039.09
2023-03-31T21:26:15.528Z,94027.56
2023-03-31T21:28:42.811Z,94031.19
2023-03-31T21:31:15.217Z,94025.38
2023-03-31T21:33:43.294Z,94042.97
2023-03-31T21:36:16.299Z,94040.16
2023-03-31T21:38:43.170Z,94033.13
2023-03-31T21:41:15.660Z,94039.19
2023-03-31T21:43:42.484Z,94056.25
2023-03-31T21:46:09.569Z,94072.53
2023-03-31T21:48:36.133Z,94068.13
2023-03-31T21:51:03.146Z,94065.88
2023-03-31T21:53:31.425Z,94073.00
2023-03-31T21:55:58.745Z,94073.75
2023-03-31T21:58:28.630Z,94080.78
2023-03-31T22:00:57.400Z,94086.59
2023-03-31T22:03:27.516Z,94076.97
2023-03-31T22:05:58.589Z,94072.22
2023-03-31T22:08:26.991Z,94078.63
2023-03-31T22:10:54.581Z,94085.06
2023-03-31T22:13:22.888Z,94088.25
2023-03-31T22:15:49.801Z,94078.19
2023-03-31T22:18:17.385Z,94067.34
2023-03-31T22:20:45.551Z,94080.34
2023-03-31T22:23:12.122Z,94075.78
2023-03-31T22:25:38.657Z,94081.22
2023-03-31T22:28:07.231Z,94086.06
2023-03-31T22:30:34.527Z,94084.19
2023-03-31T22:33:01.357Z,94085.56
2023-03-31T22:35:28.276Z,94091.69
2023-03-31T22:37:54.859Z,94090.31
2023-03-31T22:40:21.637Z,94076.81
2023-03-31T22:42:48.209Z,94093.63
2023-03-31T22:45:14.902Z,94091.38
2023-03-31T22:47:44.310Z,94092.53
2023-03-31T22:50:11.346Z,94100.66
2023-03-31T22:52:38.250Z,94092.84
2023-03-31T22:55:06.128Z,94097.19
2023-03-31T22:57:32.965Z,94097.03
2023-03-31T22:59:59.580Z,94091.00
2023-03-31T23:02:26.285Z,94100.97
2023-03-31T23:04:52.839Z,94095.59
2023-03-31T23:07:21.740Z,94095.59
2023-03-31T23:09:48.848Z,94103.34
2023-03-31T23:12:15.474Z,94084.25
2023-03-31T23:14:42.096Z,94094.94
2023-03-31T23:17:08.633Z,94088.28
2023-03-31T23:19:35.407Z,94088.38
2023-03-31T23:22:02.549Z,94082.84
2023-03-31T23:24:29.922Z,94075.81
2023-03-31T23:26:56.497Z,94076.59
2023-03-31T23:29:23.291Z,94056.66
2023-03-31T23:31:49.948Z,94054.97
2023-03-31T23:34:16.558Z,94054.88
2023-03-31T23:36:43.419Z,94056.00
2023-03-31T23:39:10.537Z,94079.13
2023-03-31T23:41:37.072Z,94052.34
2023-03-31T23:44:04.537Z,94059.47
2023-03-31T23:46:31.922Z,94065.25
2023-03-31T23:48:59.425Z,94065.13
2023-03-31T23:51:26.125Z,94069.28
2023-03-31T23:53:52.834Z,94072.84
2023-03-31T23:56:19.785Z,94078.97
2023-03-31T23:58:47.014Z,94071.28
